Terminal Aerodrome Forecast
Issued by NWS

Current Version | Previous Version | Graphics & Text | Print | Product List | Glossary On
Versions: 1 2 3 4 5 6 7 8 9 10 11 12 13 14 15 16 17 18 19 20 21 22 23 24 25
000
FTUS41 KRLX 192059 AAB
TAFCKB
TAF AMD
KCKB 192059Z 1921/2018 26009KT P6SM FEW028 BKN035 OVC070
      TEMPO 1921/1923 2SM -SHRASN OVC015
     FM200400 27009KT P6SM OVC035
     FM200900 25007KT P6SM SCT035
     FM201100 24006KT P6SM SKC=

USA.gov is the U.S. government's official web portal to all federal, state and local government web resources and services.